sensor_id;sensor_type;location;lat;lon;timestamp;pressure;altitude;pressure_sealevel;temperature;humidity
15405;BME280;7801;48.124;11.590;2023-04-15T00:01:14;94375.19;;;7.18;94.03
15405;BME280;7801;48.124;11.590;2023-04-15T00:03:47;94370.81;;;7.27;94.02
15405;BME280;7801;48.124;11.590;2023-04-15T00:06:15;94368.84;;;7.19;93.93
15405;BME280;7801;48.124;11.590;2023-04-15T00:08:41;94359.19;;;7.14;93.90
15405;BME280;7801;48.124;11.590;2023-04-15T00:11:09;94358.88;;;7.16;93.90
15405;BME280;7801;48.124;11.590;2023-04-15T00:13:36;94357.91;;;7.12;93.90
15405;BME280;7801;48.124;11.590;2023-04-15T00:16:07;94355.28;;;7.12;94.15
15405;BME280;7801;48.124;11.590;2023-04-15T00:18:34;94356.84;;;7.13;94.04
15405;BME280;7801;48.124;11.590;2023-04-15T00:21:06;94358.59;;;7.17;94.14
15405;BME280;7801;48.124;11.590;2023-04-15T00:23:32;94358.63;;;7.04;94.27
15405;BME280;7801;48.124;11.590;2023-04-15T00:25:58;94357.62;;;7.13;93.96
15405;BME280;7801;48.124;11.590;2023-04-15T00:28:25;94348.62;;;7.14;94.50
15405;BME280;7801;48.124;11.590;2023-04-15T00:30:51;94353.91;;;7.14;94.19
15405;BME280;7801;48.124;11.590;2023-04-15T00:33:18;94348.81;;;7.18;94.55
15405;BME280;7801;48.124;11.590;2023-04-15T00:35:45;94348.44;;;7.11;94.67
15405;BME280;7801;48.124;11.590;2023-04-15T00:38:11;94340.53;;;7.11;94.15
15405;BME280;7801;48.124;11.590;2023-04-15T00:40:38;94346.22;;;6.90;94.99
15405;BME280;7801;48.124;11.590;2023-04-15T00:43:03;94339.78;;;6.97;95.27
15405;BME280;7801;48.124;11.590;2023-04-15T00:45:31;94329.41;;;7.00;95.09
15405;BME280;7801;48.124;11.590;2023-04-15T00:47:59;94329.50;;;7.09;94.30
15405;BME280;7801;48.124;11.590;2023-04-15T00:50:25;94331.84;;;7.10;94.32
15405;BME280;7801;48.124;11.590;2023-04-15T00:52:51;94331.72;;;7.15;94.17
15405;BME280;7801;48.124;11.590;2023-04-15T00:55:18;94333.09;;;7.13;94.49
15405;BME280;7801;48.124;11.590;2023-04-15T00:57:45;94334.38;;;7.15;94.42
15405;BME280;7801;48.124;11.590;2023-04-15T01:00:13;94333.69;;;7.10;94.55
15405;BME280;7801;48.124;11.590;2023-04-15T01:02:43;94328.72;;;7.08;94.46
15405;BME280;7801;48.124;11.590;2023-04-15T01:05:09;94338.66;;;7.25;94.20
15405;BME280;7801;48.124;11.590;2023-04-15T01:07:36;94333.09;;;7.13;94.44
15405;BME280;7801;48.124;11.590;2023-04-15T01:10:03;94334.97;;;7.12;94.73
15405;BME280;7801;48.124;11.590;2023-04-15T01:12:31;94332.41;;;7.07;94.53
15405;BME280;7801;48.124;11.590;2023-04-15T01:14:58;94329.78;;;7.21;94.25
15405;BME280;7801;48.124;11.590;2023-04-15T01:17:24;94334.94;;;7.26;93.61
15405;BME280;7801;48.124;11.590;2023-04-15T01:19:51;94333.19;;;7.08;94.16
15405;BME280;7801;48.124;11.590;2023-04-15T01:22:18;94330.84;;;7.20;93.65
15405;BME280;7801;48.124;11.590;2023-04-15T01:25:08;94337.09;;;7.24;92.87
15405;BME280;7801;48.124;11.590;2023-04-15T01:27:41;94335.91;;;7.30;92.56
15405;BME280;7801;48.124;11.590;2023-04-15T01:30:08;94332.63;;;7.11;93.34
15405;BME280;7801;48.124;11.590;2023-04-15T01:32:36;94332.03;;;7.14;93.32
15405;BME280;7801;48.124;11.590;2023-04-15T01:35:03;94327.44;;;7.19;93.45
15405;BME280;7801;48.124;11.590;2023-04-15T01:37:30;94339.84;;;7.19;93.71
15405;BME280;7801;48.124;11.590;2023-04-15T01:39:58;94335.72;;;7.27;93.03
15405;BME280;7801;48.124;11.590;2023-04-15T01:42:24;94334.19;;;7.12;92.57
15405;BME280;7801;48.124;11.590;2023-04-15T01:44:52;94331.97;;;7.05;93.41
15405;BME280;7801;48.124;11.590;2023-04-15T01:47:19;94334.59;;;7.05;93.77
15405;BME280;7801;48.124;11.590;2023-04-15T01:49:45;94338.66;;;7.11;93.00
15405;BME280;7801;48.124;11.590;2023-04-15T01:52:12;94335.12;;;7.30;92.41
15405;BME280;7801;48.124;11.590;2023-04-15T01:54:39;94338.78;;;7.06;92.68
15405;BME280;7801;48.124;11.590;2023-04-15T01:57:06;94338.47;;;7.08;93.53
15405;BME280;7801;48.124;11.590;2023-04-15T01:59:32;94336.53;;;7.00;93.36
15405;BME280;7801;48.124;11.590;2023-04-15T02:02:04;94331.56;;;6.98;93.27
15405;BME280;7801;48.124;11.590;2023-04-15T02:04:30;94330.56;;;7.08;92.44
15405;BME280;7801;48.124;11.590;2023-04-15T02:06:56;94336.31;;;7.10;92.48
15405;BME280;7801;48.124;11.590;2023-04-15T02:09:22;94338.31;;;7.04;92.71
15405;BME280;7801;48.124;11.590;2023-04-15T02:11:47;94338.00;;;6.92;93.40
15405;BME280;7801;48.124;11.590;2023-04-15T02:14:14;94331.47;;;6.89;93.33
15405;BME280;7801;48.124;11.590;2023-04-15T02:16:42;94336.25;;;7.01;93.29
15405;BME280;7801;48.124;11.590;2023-04-15T02:19:07;94333.03;;;7.04;93.01
15405;BME280;7801;48.124;11.590;2023-04-15T02:21:35;94338.78;;;7.06;92.79
15405;BME280;7801;48.124;11.590;2023-04-15T02:24:00;94336.91;;;7.07;92.79
15405;BME280;7801;48.124;11.590;2023-04-15T02:26:29;94339.75;;;7.10;92.10
15405;BME280;7801;48.124;11.590;2023-04-15T02:28:58;94331.94;;;6.92;93.09
15405;BME280;7801;48.124;11.590;2023-04-15T02:31:25;94333.44;;;6.84;93.51
15405;BME280;7801;48.124;11.590;2023-04-15T02:33:51;94327.16;;;6.94;93.19
15405;BME280;7801;48.124;11.590;2023-04-15T02:36:19;94330.87;;;6.93;93.11
15405;BME280;7801;48.124;11.590;2023-04-15T02:38:47;94330.69;;;7.03;92.98
15405;BME280;7801;48.124;11.590;2023-04-15T02:41:14;94322.09;;;6.97;92.82
15405;BME280;7801;48.124;11.590;2023-04-15T02:43:40;94330.41;;;7.04;92.45
15405;BME280;7801;48.124;11.590;2023-04-15T02:46:06;94321.31;;;6.97;92.35
15405;BME280;7801;48.124;11.590;2023-04-15T02:48:31;94327.94;;;7.08;91.63
15405;BME280;7801;48.124;11.590;2023-04-15T02:51:16;94323.91;;;7.10;91.54
15405;BME280;7801;48.124;11.590;2023-04-15T02:53:48;94328.81;;;6.89;91.87
15405;BME280;7801;48.124;11.590;2023-04-15T02:56:18;94320.72;;;7.00;92.08
15405;BME280;7801;48.124;11.590;2023-04-15T02:58:44;94323.28;;;7.05;92.52
15405;BME280;7801;48.124;11.590;2023-04-15T03:01:09;94323.91;;;7.10;92.42
15405;BME280;7801;48.124;11.590;2023-04-15T03:03:36;94322.28;;;7.01;91.94
15405;BME280;7801;48.124;11.590;2023-04-15T03:06:03;94335.47;;;6.87;91.96
15405;BME280;7801;48.124;11.590;2023-04-15T03:08:29;94327.69;;;6.82;92.19
15405;BME280;7801;48.124;11.590;2023-04-15T03:11:01;94331.25;;;6.86;92.47
15405;BME280;7801;48.124;11.590;2023-04-15T03:13:27;94329.72;;;6.99;91.85
15405;BME280;7801;48.124;11.590;2023-04-15T03:15:53;94326.94;;;7.17;90.86
15405;BME280;7801;48.124;11.590;2023-04-15T03:18:20;94330.87;;;7.06;90.56
15405;BME280;7801;48.124;11.590;2023-04-15T03:20:47;94338.59;;;7.03;90.70
15405;BME280;7801;48.124;11.590;2023-04-15T03:23:14;94345.22;;;6.86;91.19
15405;BME280;7801;48.124;11.590;2023-04-15T03:25:39;94341.81;;;7.00;91.34
15405;BME280;7801;48.124;11.590;2023-04-15T03:28:07;94342.41;;;6.97;91.37
15405;BME280;7801;48.124;11.590;2023-04-15T03:30:32;94347.28;;;7.03;91.42
15405;BME280;7801;48.124;11.590;2023-04-15T03:32:58;94342.69;;;6.95;91.65
15405;BME280;7801;48.124;11.590;2023-04-15T03:35:25;94342.50;;;6.92;91.95
15405;BME280;7801;48.124;11.590;2023-04-15T03:37:51;94344.38;;;7.05;91.83
15405;BME280;7801;48.124;11.590;2023-04-15T03:40:20;94344.53;;;7.08;91.07
15405;BME280;7801;48.124;11.590;2023-04-15T03:42:47;94341.44;;;7.06;91.10
15405;BME280;7801;48.124;11.590;2023-04-15T03:45:13;94341.09;;;7.08;91.34
15405;BME280;7801;48.124;11.590;2023-04-15T03:47:38;94344.38;;;7.05;90.94
15405;BME280;7801;48.124;11.590;2023-04-15T03:50:04;94337.09;;;7.10;90.86
15405;BME280;7801;48.124;11.590;2023-04-15T03:52:31;94344.06;;;7.06;90.78
15405;BME280;7801;48.124;11.590;2023-04-15T03:54:56;94346.75;;;7.29;89.37
15405;BME280;7801;48.124;11.590;2023-04-15T03:57:24;94336.53;;;7.13;89.50
15405;BME280;7801;48.124;11.590;2023-04-15T03:59:52;94345.72;;;7.02;90.64
15405;BME280;7801;48.124;11.590;2023-04-15T04:02:18;94346.78;;;7.15;89.86
15405;BME280;7801;48.124;11.590;2023-04-15T04:04:43;94347.38;;;7.12;89.33
15405;BME280;7801;48.124;11.590;2023-04-15T04:07:19;94353.09;;;7.28;88.31
15405;BME280;7801;48.124;11.590;2023-04-15T04:09:46;94349.28;;;7.34;88.15
15405;BME280;7801;48.124;11.590;2023-04-15T04:12:12;94347.75;;;7.19;87.91
15405;BME280;7801;48.124;11.590;2023-04-15T04:14:38;94345.69;;;7.16;88.34
15405;BME280;7801;48.124;11.590;2023-04-15T04:17:07;94350.28;;;7.24;88.58
15405;BME280;7801;48.124;11.590;2023-04-15T04:19:34;94353.03;;;7.19;88.20
15405;BME280;7801;48.124;11.590;2023-04-15T04:22:02;94359.56;;;7.08;88.82
15405;BME280;7801;48.124;11.590;2023-04-15T04:24:28;94351.38;;;7.09;89.00
15405;BME280;7801;48.124;11.590;2023-04-15T04:26:55;94352.72;;;7.07;89.43
15405;BME280;7801;48.124;11.590;2023-04-15T04:29:22;94351.59;;;6.99;89.23
15405;BME280;7801;48.124;11.590;2023-04-15T04:31:47;94346.31;;;6.99;89.16
15405;BME280;7801;48.124;11.590;2023-04-15T04:34:14;94348.25;;;6.94;89.54
15405;BME280;7801;48.124;11.590;2023-04-15T04:36:43;94354.91;;;7.05;89.39
15405;BME280;7801;48.124;11.590;2023-04-15T04:39:10;94353.13;;;6.86;89.69
15405;BME280;7801;48.124;11.590;2023-04-15T04:41:37;94349.25;;;6.98;89.52
15405;BME280;7801;48.124;11.590;2023-04-15T04:44:04;94352.94;;;6.97;89.39
15405;BME280;7801;48.124;11.590;2023-04-15T04:46:29;94349.03;;;7.08;89.61
15405;BME280;7801;48.124;11.590;2023-04-15T04:48:56;94354.28;;;7.08;88.85
15405;BME280;7801;48.124;11.590;2023-04-15T04:51:23;94353.50;;;7.21;88.19
15405;BME280;7801;48.124;11.590;2023-04-15T04:53:50;94364.06;;;7.21;88.21
15405;BME280;7801;48.124;11.590;2023-04-15T04:56:18;94356.25;;;7.16;88.33
15405;BME280;7801;48.124;11.590;2023-04-15T04:58:46;94359.56;;;7.08;88.32
15405;BME280;7801;48.124;11.590;2023-04-15T05:01:12;94347.75;;;7.19;88.10
15405;BME280;7801;48.124;11.590;2023-04-15T05:03:39;94349.03;;;7.08;88.71
15405;BME280;7801;48.124;11.590;2023-04-15T05:06:08;94359.09;;;7.06;87.96
15405;BME280;7801;48.124;11.590;2023-04-15T05:08:34;94354.91;;;6.91;88.31
15405;BME280;7801;48.124;11.590;2023-04-15T05:11:03;94351.97;;;7.06;88.76
15405;BME280;7801;48.124;11.590;2023-04-15T05:13:31;94355.66;;;7.19;88.28
15405;BME280;7801;48.124;11.590;2023-04-15T05:15:57;94353.91;;;7.14;87.20
15405;BME280;7801;48.124;11.590;2023-04-15T05:18:25;94349.41;;;7.15;87.46
15405;BME280;7801;48.124;11.590;2023-04-15T05:20:52;94358.97;;;7.11;86.79
15405;BME280;7801;48.124;11.590;2023-04-15T05:23:18;94355.84;;;7.09;86.80
15405;BME280;7801;48.124;11.590;2023-04-15T05:25:46;94347.00;;;7.05;86.71
15405;BME280;7801;48.124;11.590;2023-04-15T05:28:13;94348.62;;;7.14;86.82
15405;BME280;7801;48.124;11.590;2023-04-15T05:30:39;94355.66;;;7.19;86.73
15405;BME280;7801;48.124;11.590;2023-04-15T05:33:05;94355.56;;;7.10;86.22
15405;BME280;7801;48.124;11.590;2023-04-15T05:35:32;94354.13;;;7.04;86.42
15405;BME280;7801;48.124;11.590;2023-04-15T05:37:57;94362.69;;;7.10;86.44
15405;BME280;7801;48.124;11.590;2023-04-15T05:40:22;94354.19;;;7.13;85.08
15405;BME280;7801;48.124;11.590;2023-04-15T05:42:48;94355.56;;;7.24;84.78
15405;BME280;7801;48.124;11.590;2023-04-15T05:45:18;94353.91;;;7.14;83.95
15405;BME280;7801;48.124;11.590;2023-04-15T05:47:45;94357.31;;;7.15;83.93
15405;BME280;7801;48.124;11.590;2023-04-15T05:50:12;94359.88;;;7.20;83.71
15405;BME280;7801;48.124;11.590;2023-04-15T05:52:38;94360.94;;;7.19;83.07
15405;BME280;7801;48.124;11.590;2023-04-15T05:55:05;94362.69;;;7.10;83.22
15405;BME280;7801;48.124;11.590;2023-04-15T05:57:33;94361.94;;;6.96;83.33
15405;BME280;7801;48.124;11.590;2023-04-15T05:59:58;94365.06;;;6.98;83.50
15405;BME280;7801;48.124;11.590;2023-04-15T06:02:25;94364.16;;;7.16;82.91
15405;BME280;7801;48.124;11.590;2023-04-15T06:04:52;94359.88;;;7.20;82.82
15405;BME280;7801;48.124;11.590;2023-04-15T06:07:19;94360.41;;;7.31;82.25
15405;BME280;7801;48.124;11.590;2023-04-15T06:09:46;94362.31;;;7.16;81.92
15405;BME280;7801;48.124;11.590;2023-04-15T06:12:11;94356.25;;;7.16;82.39
15405;BME280;7801;48.124;11.590;2023-04-15T06:14:39;94364.97;;;7.03;82.22
15405;BME280;7801;48.124;11.590;2023-04-15T06:17:07;94368.16;;;7.13;82.57
15405;BME280;7801;48.124;11.590;2023-04-15T06:19:34;94361.06;;;7.00;83.25
15405;BME280;7801;48.124;11.590;2023-04-15T06:22:02;94364.97;;;7.03;82.30
15405;BME280;7801;48.124;11.590;2023-04-15T06:24:30;94369.44;;;7.16;82.06
15405;BME280;7801;48.124;11.590;2023-04-15T06:26:58;94361.03;;;7.14;82.23
15405;BME280;7801;48.124;11.590;2023-04-15T06:29:23;94369.91;;;7.32;80.83
15405;BME280;7801;48.124;11.590;2023-04-15T06:31:49;94366.31;;;7.14;81.51
15405;BME280;7801;48.124;11.590;2023-04-15T06:34:16;94364.47;;;7.14;81.94
15405;BME280;7801;48.124;11.590;2023-04-15T06:36:41;94361.13;;;7.09;81.29
15405;BME280;7801;48.124;11.590;2023-04-15T06:39:10;94363.28;;;7.20;81.80
15405;BME280;7801;48.124;11.590;2023-04-15T06:41:36;94365.53;;;7.27;81.04
15405;BME280;7801;48.124;11.590;2023-04-15T06:44:03;94367.66;;;7.39;79.75
15405;BME280;7801;48.124;11.590;2023-04-15T06:46:29;94371.47;;;7.33;80.48
15405;BME280;7801;48.124;11.590;2023-04-15T06:48:56;94367.47;;;7.21;80.45
15405;BME280;7801;48.124;11.590;2023-04-15T06:51:22;94374.31;;;7.22;80.21
15405;BME280;7801;48.124;11.590;2023-04-15T06:53:48;94375.94;;;7.32;80.58
15405;BME280;7801;48.124;11.590;2023-04-15T06:56:15;94377.66;;;7.50;80.69
15405;BME280;7801;48.124;11.590;2023-04-15T06:58:42;94379.22;;;7.51;79.97
15405;BME280;7801;48.124;11.590;2023-04-15T07:01:09;94382.00;;;7.46;78.21
15405;BME280;7801;48.124;11.590;2023-04-15T07:03:35;94379.91;;;7.57;77.41
15405;BME280;7801;48.124;11.590;2023-04-15T07:06:03;94381.22;;;7.46;79.35
15405;BME280;7801;48.124;11.590;2023-04-15T07:08:34;94372.97;;;7.61;77.63
15405;BME280;7801;48.124;11.590;2023-04-15T07:11:02;94384.25;;;7.75;76.96
15405;BME280;7801;48.124;11.590;2023-04-15T07:13:32;94379.47;;;7.77;76.75
15405;BME280;7801;48.124;11.590;2023-04-15T07:15:58;94381.31;;;7.77;75.99
15405;BME280;7801;48.124;11.590;2023-04-15T07:18:25;94383.25;;;7.85;75.57
15405;BME280;7801;48.124;11.590;2023-04-15T07:20:50;94379.66;;;8.03;75.66
15405;BME280;7801;48.124;11.590;2023-04-15T07:23:16;94378.78;;;8.08;74.93
15405;BME280;7801;48.124;11.590;2023-04-15T07:25:43;94376.06;;;7.99;75.35
15405;BME280;7801;48.124;11.590;2023-04-15T07:28:10;94380.44;;;8.04;74.36
15405;BME280;7801;48.124;11.590;2023-04-15T07:30:36;94385.47;;;8.14;72.65
15405;BME280;7801;48.124;11.590;2023-04-15T07:33:03;94384.16;;;8.03;73.54
15405;BME280;7801;48.124;11.590;2023-04-15T07:35:28;94388.91;;;8.14;74.34
15405;BME280;7801;48.124;11.590;2023-04-15T07:37:54;94391.25;;;8.38;74.23
15405;BME280;7801;48.124;11.590;2023-04-15T07:40:20;94391.03;;;8.48;72.77
15405;BME280;7801;48.124;11.590;2023-04-15T07:42:48;94389.16;;;8.49;71.99
15405;BME280;7801;48.124;11.590;2023-04-15T07:45:14;94387.62;;;8.56;71.45
15405;BME280;7801;48.124;11.590;2023-04-15T07:47:40;94394.31;;;8.54;70.14
15405;BME280;7801;48.124;11.590;2023-04-15T07:50:08;94388.12;;;8.58;71.49
15405;BME280;7801;48.124;11.590;2023-04-15T07:52:33;94397.97;;;8.67;71.14
15405;BME280;7801;48.124;11.590;2023-04-15T07:55:09;94389.91;;;9.11;85.75
15405;BME280;7801;48.124;11.590;2023-04-15T07:57:36;94383.19;;;10.14;94.22
15405;BME280;7801;48.124;11.590;2023-04-15T08:00:05;94376.22;;;10.73;86.81
15405;BME280;7801;48.124;11.590;2023-04-15T08:02:34;94381.38;;;11.66;89.25
15405;BME280;7801;48.124;11.590;2023-04-15T08:04:59;94373.75;;;12.27;87.18
15405;BME280;7801;48.124;11.590;2023-04-15T08:07:29;94375.44;;;12.77;85.91
15405;BME280;7801;48.124;11.590;2023-04-15T08:10:00;94368.16;;;12.86;77.94
15405;BME280;7801;48.124;11.590;2023-04-15T08:12:27;94365.66;;;13.26;73.07
15405;BME280;7801;48.124;11.590;2023-04-15T08:14:53;94367.25;;;12.37;58.97
15405;BME280;7801;48.124;11.590;2023-04-15T08:17:19;94372.28;;;11.76;59.32
15405;BME280;7801;48.124;11.590;2023-04-15T08:19:49;94381.22;;;10.75;63.16
15405;BME280;7801;48.124;11.590;2023-04-15T08:22:14;94374.59;;;10.17;64.48
15405;BME280;7801;48.124;11.590;2023-04-15T08:24:41;94386.16;;;9.95;66.08
15405;BME280;7801;48.124;11.590;2023-04-15T08:27:07;94377.13;;;9.96;66.47
15405;BME280;7801;48.124;11.590;2023-04-15T08:29:36;94384.72;;;10.06;66.13
15405;BME280;7801;48.124;11.590;2023-04-15T08:32:06;94375.37;;;10.17;68.74
15405;BME280;7801;48.124;11.590;2023-04-15T08:34:33;94380.53;;;10.14;66.10
15405;BME280;7801;48.124;11.590;2023-04-15T08:36:59;94376.78;;;10.15;65.87
15405;BME280;7801;48.124;11.590;2023-04-15T08:39:25;94388.78;;;10.21;66.73
15405;BME280;7801;48.124;11.590;2023-04-15T08:41:56;94388.16;;;9.98;67.11
15405;BME280;7801;48.124;11.590;2023-04-15T08:44:25;94380.06;;;9.86;67.26
15405;BME280;7801;48.124;11.590;2023-04-15T08:46:52;94380.38;;;9.76;67.38
15405;BME280;7801;48.124;11.590;2023-04-15T08:49:28;94380.38;;;9.76;67.56
15405;BME280;7801;48.124;11.590;2023-04-15T08:51:58;94378.34;;;9.81;66.21
15405;BME280;7801;48.124;11.590;2023-04-15T08:54:27;94383.16;;;9.62;65.79
15405;BME280;7801;48.124;11.590;2023-04-15T08:56:59;94382.88;;;9.72;68.34
15405;BME280;7801;48.124;11.590;2023-04-15T08:59:32;94388.94;;;9.81;68.49
15405;BME280;7801;48.124;11.590;2023-04-15T09:02:00;94380.22;;;9.72;67.40
15405;BME280;7801;48.124;11.590;2023-04-15T09:04:30;94389.38;;;9.57;67.82
15405;BME280;7801;48.124;11.590;2023-04-15T09:06:58;94383.78;;;9.68;67.19
15405;BME280;7801;48.124;11.590;2023-04-15T09:09:26;94393.44;;;9.63;67.32
15405;BME280;7801;48.124;11.590;2023-04-15T09:11:54;94392.66;;;9.54;67.48
15405;BME280;7801;48.124;11.590;2023-04-15T09:14:23;94392.81;;;9.67;68.15
15405;BME280;7801;48.124;11.590;2023-04-15T09:16:57;94394.22;;;9.81;66.75
15405;BME280;7801;48.124;11.590;2023-04-15T09:19:26;94397.53;;;9.95;66.98
15405;BME280;7801;48.124;11.590;2023-04-15T09:21:56;94405.00;;;9.85;66.51
15405;BME280;7801;48.124;11.590;2023-04-15T09:24:38;94399.69;;;10.02;66.00
15405;BME280;7801;48.124;11.590;2023-04-15T09:27:08;94403.28;;;9.97;65.70
15405;BME280;7801;48.124;11.590;2023-04-15T09:29:35;94404.03;;;9.98;65.30
15405;BME280;7801;48.124;11.590;2023-04-15T09:32:30;94410.75;;;10.04;64.60
15405;BME280;7801;48.124;11.590;2023-04-15T09:35:16;94414.03;;;10.10;65.44
15405;BME280;7801;48.124;11.590;2023-04-15T09:37:42;94412.47;;;10.00;64.64
15405;BME280;7801;48.124;11.590;2023-04-15T09:40:09;94415.00;;;10.22;65.74
15405;BME280;7801;48.124;11.590;2023-04-15T09:42:35;94414.84;;;10.27;64.93
15405;BME280;7801;48.124;11.590;2023-04-15T09:45:10;94415.94;;;10.26;65.89
15405;BME280;7801;48.124;11.590;2023-04-15T09:47:36;94414.22;;;10.39;63.77
15405;BME280;7801;48.124;11.590;2023-04-15T09:50:02;94417.19;;;10.38;64.02
15405;BME280;7801;48.124;11.590;2023-04-15T09:52:28;94409.50;;;10.53;63.76
15405;BME280;7801;48.124;11.590;2023-04-15T09:54:54;94412.78;;;10.59;64.67
15405;BME280;7801;48.124;11.590;2023-04-15T09:57:23;94417.91;;;10.64;65.19
15405;BME280;7801;48.124;11.590;2023-04-15T09:59:49;94415.91;;;10.44;66.55
15405;BME280;7801;48.124;11.590;2023-04-15T10:02:15;94423.56;;;10.37;65.59
15405;BME280;7801;48.124;11.590;2023-04-15T10:04:43;94420.75;;;10.50;65.43
15405;BME280;7801;48.124;11.590;2023-04-15T10:07:10;94417.94;;;10.55;65.25
15405;BME280;7801;48.124;11.590;2023-04-15T10:09:37;94421.06;;;10.57;64.15
15405;BME280;7801;48.124;11.590;2023-04-15T10:12:04;94422.63;;;10.32;65.11
15405;BME280;7801;48.124;11.590;2023-04-15T10:14:34;94422.59;;;10.41;64.32
15405;BME280;7801;48.124;11.590;2023-04-15T10:17:04;94423.09;;;10.35;63.72
15405;BME280;7801;48.124;11.590;2023-04-15T10:19:33;94417.19;;;10.29;63.78
15405;BME280;7801;48.124;11.590;2023-04-15T10:22:00;94425.28;;;10.32;63.93
15405;BME280;7801;48.124;11.590;2023-04-15T10:24:28;94421.53;;;10.25;64.18
15405;BME280;7801;48.124;11.590;2023-04-15T10:26:55;94423.56;;;10.37;63.56
15405;BME280;7801;48.124;11.590;2023-04-15T10:29:23;94428.56;;;10.38;63.83
15405;BME280;7801;48.124;11.590;2023-04-15T10:31:50;94416.53;;;10.49;63.97
15405;BME280;7801;48.124;11.590;2023-04-15T10:34:16;94425.56;;;10.40;63.49
15405;BME280;7801;48.124;11.590;2023-04-15T10:36:42;94425.56;;;10.40;63.18
15405;BME280;7801;48.124;11.590;2023-04-15T10:42:12;94433.88;;;10.38;63.93
15405;BME280;7801;48.124;11.590;2023-04-15T10:44:38;94431.97;;;10.56;63.69
15405;BME280;7801;48.124;11.590;2023-04-15T10:47:16;94436.19;;;10.40;63.55
15405;BME280;7801;48.124;11.590;2023-04-15T10:49:49;94426.50;;;10.52;64.84
15405;BME280;7801;48.124;11.590;2023-04-15T10:52:17;94432.91;;;10.51;64.02
15405;BME280;7801;48.124;11.590;2023-04-15T10:54:43;94434.91;;;10.63;63.81
15405;BME280;7801;48.124;11.590;2023-04-15T10:57:15;94436.31;;;10.69;63.29
15405;BME280;7801;48.124;11.590;2023-04-15T11:02:56;94438.66;;;10.62;64.85
15405;BME280;7801;48.124;11.590;2023-04-15T11:05:48;94436.16;;;10.74;64.28
15405;BME280;7801;48.124;11.590;2023-04-15T11:08:15;94436.87;;;10.83;63.40
15405;BME280;7801;48.124;11.590;2023-04-15T11:15:38;94442.25;;;10.49;62.98
15405;BME280;7801;48.124;11.590;2023-04-15T11:18:14;94445.69;;;10.58;63.05
15405;BME280;7801;48.124;11.590;2023-04-15T11:20:42;94444.59;;;10.42;63.19
15405;BME280;7801;48.124;11.590;2023-04-15T11:23:09;94448.81;;;10.51;62.88
15405;BME280;7801;48.124;11.590;2023-04-15T11:25:35;94441.00;;;10.46;63.46
15405;BME280;7801;48.124;11.590;2023-04-15T11:28:04;94442.41;;;10.52;62.80
15405;BME280;7801;48.124;11.590;2023-04-15T11:30:31;94442.72;;;10.51;63.63
15405;BME280;7801;48.124;11.590;2023-04-15T11:32:59;94449.28;;;10.45;62.30
15405;BME280;7801;48.124;11.590;2023-04-15T11:35:25;94445.53;;;10.46;64.45
15405;BME280;7801;48.124;11.590;2023-04-15T11:37:51;94451.00;;;10.49;64.04
15405;BME280;7801;48.124;11.590;2023-04-15T11:40:21;94456.78;;;10.34;64.83
15405;BME280;7801;48.124;11.590;2023-04-15T11:43:12;94453.03;;;10.26;63.78
15405;BME280;7801;48.124;11.590;2023-04-15T11:45:49;94450.50;;;10.04;67.40
15405;BME280;7801;48.124;11.590;2023-04-15T11:48:16;94452.56;;;10.16;66.94
15405;BME280;7801;48.124;11.590;2023-04-15T11:50:41;94455.97;;;10.16;66.36
15405;BME280;7801;48.124;11.590;2023-04-15T11:53:08;94462.19;;;10.03;68.34
15405;BME280;7801;48.124;11.590;2023-04-15T11:55:45;94457.03;;;9.98;69.18
15405;BME280;7801;48.124;11.590;2023-04-15T12:00:51;94453.00;;;10.09;67.51
15405;BME280;7801;48.124;11.590;2023-04-15T12:03:19;94451.47;;;10.17;68.90
15405;BME280;7801;48.124;11.590;2023-04-15T12:13:53;94468.63;;;10.19;67.15
15405;BME280;7801;48.124;11.590;2023-04-15T12:16:20;94465.03;;;10.15;66.69
15405;BME280;7801;48.124;11.590;2023-04-15T12:18:46;94469.72;;;10.27;66.79
15405;BME280;7801;48.124;11.590;2023-04-15T12:21:12;94477.03;;;10.21;67.78
15405;BME280;7801;48.124;11.590;2023-04-15T12:23:48;94476.56;;;10.11;68.71
15405;BME280;7801;48.124;11.590;2023-04-15T12:26:15;94479.19;;;10.11;67.34
15405;BME280;7801;48.124;11.590;2023-04-15T12:28:40;94482.34;;;10.21;66.06
15405;BME280;7801;48.124;11.590;2023-04-15T12:31:10;94484.03;;;10.17;64.20
15405;BME280;7801;48.124;11.590;2023-04-15T12:33:36;94485.31;;;10.20;65.52
15405;BME280;7801;48.124;11.590;2023-04-15T12:36:02;94484.53;;;10.28;65.27
15405;BME280;7801;48.124;11.590;2023-04-15T12:38:28;94488.28;;;10.44;64.86
15405;BME280;7801;48.124;11.590;2023-04-15T12:40:53;94491.84;;;10.40;64.53
15405;BME280;7801;48.124;11.590;2023-04-15T12:43:19;94484.56;;;10.37;66.49
15405;BME280;7801;48.124;11.590;2023-04-15T12:45:44;94493.75;;;10.39;65.40
15405;BME280;7801;48.124;11.590;2023-04-15T12:48:10;94502.31;;;10.27;63.53
15405;BME280;7801;48.124;11.590;2023-04-15T12:50:37;94496.38;;;10.30;64.04
15405;BME280;7801;48.124;11.590;2023-04-15T12:53:04;94497.47;;;10.21;62.73
15405;BME280;7801;48.124;11.590;2023-04-15T12:55:29;94511.97;;;10.23;62.50
15405;BME280;7801;48.124;11.590;2023-04-15T12:57:55;94505.44;;;10.29;59.27
15405;BME280;7801;48.124;11.590;2023-04-15T13:00:21;94513.84;;;10.23;59.83
15405;BME280;7801;48.124;11.590;2023-04-15T13:02:46;94507.31;;;10.29;60.55
15405;BME280;7801;48.124;11.590;2023-04-15T13:05:12;94508.22;;;10.16;59.53
15405;BME280;7801;48.124;11.590;2023-04-15T13:07:38;94504.19;;;10.36;60.82
15405;BME280;7801;48.124;11.590;2023-04-15T13:10:04;94514.47;;;10.28;58.91
15405;BME280;7801;48.124;11.590;2023-04-15T13:12:30;94514.16;;;10.21;56.87
15405;BME280;7801;48.124;11.590;2023-04-15T13:14:57;94515.53;;;10.19;59.01
15405;BME280;7801;48.124;11.590;2023-04-15T13:17:22;94531.13;;;10.20;57.85
15405;BME280;7801;48.124;11.590;2023-04-15T13:19:47;94521.59;;;10.11;57.31
15405;BME280;7801;48.124;11.590;2023-04-15T13:22:13;94530.47;;;10.06;58.44
15405;BME280;7801;48.124;11.590;2023-04-15T13:24:39;94534.06;;;10.10;56.18
15405;BME280;7801;48.124;11.590;2023-04-15T13:27:05;94540.59;;;10.04;58.24
15405;BME280;7801;48.124;11.590;2023-04-15T13:29:32;94542.94;;;9.97;57.14
15405;BME280;7801;48.124;11.590;2023-04-15T13:31:57;94546.06;;;10.08;57.61